sensor_id;sensor_type;location;lat;lon;timestamp;pressure;altitude;pressure_sealevel;temperature;humidity
16544;BME280;8384;47.996;7.786;2023-03-03T00:00:55;99007.09;;;0.78;84.05
16544;BME280;8384;47.996;7.786;2023-03-03T00:03:22;99022.13;;;0.94;84.22
16544;BME280;8384;47.996;7.786;2023-03-03T00:05:49;99013.88;;;0.95;84.10
16544;BME280;8384;47.996;7.786;2023-03-03T00:08:15;99016.03;;;0.85;84.57
16544;BME280;8384;47.996;7.786;2023-03-03T00:10:40;98994.19;;;0.73;84.87
16544;BME280;8384;47.996;7.786;2023-03-03T00:13:23;99016.13;;;0.92;84.68
16544;BME280;8384;47.996;7.786;2023-03-03T00:15:50;98989.19;;;0.70;84.45
16544;BME280;8384;47.996;7.786;2023-03-03T00:18:29;99022.69;;;0.89;85.07
16544;BME280;8384;47.996;7.786;2023-03-03T00:20:57;99019.56;;;0.64;85.78
16544;BME280;8384;47.996;7.786;2023-03-03T00:23:36;98991.00;;;0.26;87.63
16544;BME280;8384;47.996;7.786;2023-03-03T00:26:14;99022.59;;;0.24;88.21
16544;BME280;8384;47.996;7.786;2023-03-03T00:28:46;99016.00;;;0.26;88.66
16544;BME280;8384;47.996;7.786;2023-03-03T00:31:16;98995.19;;;-0.02;89.09
16544;BME280;8384;47.996;7.786;2023-03-03T00:33:46;98930.72;;;-0.32;89.51
16544;BME280;8384;47.996;7.786;2023-03-03T00:38:41;99014.72;;;0.22;89.76
16544;BME280;8384;47.996;7.786;2023-03-03T00:41:23;98972.09;;;-0.26;90.08
16544;BME280;8384;47.996;7.786;2023-03-03T00:43:49;99034.56;;;0.06;90.47
16544;BME280;8384;47.996;7.786;2023-03-03T00:46:17;99025.19;;;0.02;90.69
16544;BME280;8384;47.996;7.786;2023-03-03T00:48:43;98989.44;;;-0.28;90.57
16544;BME280;8384;47.996;7.786;2023-03-03T00:51:22;99022.50;;;-0.13;90.53
16544;BME280;8384;47.996;7.786;2023-03-03T00:53:49;99023.25;;;-0.19;89.90
16544;BME280;8384;47.996;7.786;2023-03-03T00:56:15;99015.75;;;-0.24;90.48
16544;BME280;8384;47.996;7.786;2023-03-03T00:58:40;99034.00;;;0.11;88.63
16544;BME280;8384;47.996;7.786;2023-03-03T01:01:06;99036.22;;;0.07;87.19
16544;BME280;8384;47.996;7.786;2023-03-03T01:03:31;99025.09;;;-0.05;87.44
16544;BME280;8384;47.996;7.786;2023-03-03T01:05:56;99020.19;;;-0.31;88.37
16544;BME280;8384;47.996;7.786;2023-03-03T01:08:22;99035.75;;;-0.26;89.77
16544;BME280;8384;47.996;7.786;2023-03-03T01:10:50;99037.88;;;-0.37;89.89
16544;BME280;8384;47.996;7.786;2023-03-03T01:13:17;99037.06;;;-0.22;89.76
16544;BME280;8384;47.996;7.786;2023-03-03T01:15:42;98978.63;;;-0.73;89.90
16544;BME280;8384;47.996;7.786;2023-03-03T01:18:09;99032.88;;;-0.25;90.50
16544;BME280;8384;47.996;7.786;2023-03-03T01:20:35;99029.47;;;-0.04;89.42
16544;BME280;8384;47.996;7.786;2023-03-03T01:23:01;99037.59;;;-0.12;89.55
16544;BME280;8384;47.996;7.786;2023-03-03T01:25:26;99016.50;;;-0.15;89.38
16544;BME280;8384;47.996;7.786;2023-03-03T01:27:53;99022.78;;;-0.08;88.96
16544;BME280;8384;47.996;7.786;2023-03-03T01:30:18;99004.81;;;-0.22;89.30
16544;BME280;8384;47.996;7.786;2023-03-03T01:32:43;98969.97;;;-0.46;89.87
16544;BME280;8384;47.996;7.786;2023-03-03T01:35:09;99031.97;;;-0.02;89.38
16544;BME280;8384;47.996;7.786;2023-03-03T01:37:35;99027.88;;;0.17;88.81
16544;BME280;8384;47.996;7.786;2023-03-03T01:40:01;99022.69;;;0.31;87.99
16544;BME280;8384;47.996;7.786;2023-03-03T01:42:26;98992.78;;;0.04;88.10
16544;BME280;8384;47.996;7.786;2023-03-03T01:45:18;99027.22;;;0.15;88.51
16544;BME280;8384;47.996;7.786;2023-03-03T01:48:08;99023.06;;;0.27;88.30
16544;BME280;8384;47.996;7.786;2023-03-03T01:50:44;99026.84;;;0.18;88.34
16544;BME280;8384;47.996;7.786;2023-03-03T01:53:14;99023.06;;;0.27;88.40
16544;BME280;8384;47.996;7.786;2023-03-03T01:55:41;99013.41;;;0.18;88.50
16544;BME280;8384;47.996;7.786;2023-03-03T01:58:35;98993.34;;;-0.01;88.46
16544;BME280;8384;47.996;7.786;2023-03-03T02:01:04;99018.25;;;0.23;88.40
16544;BME280;8384;47.996;7.786;2023-03-03T02:03:32;99012.59;;;0.18;88.91
16544;BME280;8384;47.996;7.786;2023-03-03T02:06:02;98976.72;;;-0.05;89.38
16544;BME280;8384;47.996;7.786;2023-03-03T02:08:35;99015.28;;;0.18;89.38
16544;BME280;8384;47.996;7.786;2023-03-03T02:11:04;98984.44;;;-0.02;89.04
16544;BME280;8384;47.996;7.786;2023-03-03T02:13:30;98983.69;;;0.05;89.35
16544;BME280;8384;47.996;7.786;2023-03-03T02:15:56;98988.22;;;0.04;89.50
16544;BME280;8384;47.996;7.786;2023-03-03T02:18:23;99017.25;;;0.09;90.52
16544;BME280;8384;47.996;7.786;2023-03-03T02:21:06;98973.88;;;-0.33;90.00
16544;BME280;8384;47.996;7.786;2023-03-03T02:23:46;99013.03;;;-0.39;91.48
16544;BME280;8384;47.996;7.786;2023-03-03T02:26:17;98995.44;;;-0.41;92.28
16544;BME280;8384;47.996;7.786;2023-03-03T02:28:44;98963.28;;;-0.65;91.86
16544;BME280;8384;47.996;7.786;2023-03-03T02:31:13;98986.66;;;-0.50;92.32
16544;BME280;8384;47.996;7.786;2023-03-03T02:33:42;98956.34;;;-0.74;91.88
16544;BME280;8384;47.996;7.786;2023-03-03T02:36:28;99001.09;;;-0.51;91.89
16544;BME280;8384;47.996;7.786;2023-03-03T02:39:04;98984.22;;;-0.60;92.09
16544;BME280;8384;47.996;7.786;2023-03-03T02:41:39;98983.66;;;-0.70;92.23
16544;BME280;8384;47.996;7.786;2023-03-03T02:44:12;98994.75;;;-0.73;92.67
16544;BME280;8384;47.996;7.786;2023-03-03T02:46:40;98995.50;;;-0.80;92.88
16544;BME280;8384;47.996;7.786;2023-03-03T02:49:07;98992.03;;;-0.88;92.85
16544;BME280;8384;47.996;7.786;2023-03-03T02:51:33;98951.94;;;-1.28;93.97
16544;BME280;8384;47.996;7.786;2023-03-03T02:53:59;98972.03;;;-1.47;94.63
16544;BME280;8384;47.996;7.786;2023-03-03T02:56:24;98981.34;;;-1.67;95.99
16544;BME280;8384;47.996;7.786;2023-03-03T02:58:50;98971.50;;;-2.06;97.38
16544;BME280;8384;47.996;7.786;2023-03-03T03:01:15;98970.91;;;-1.85;97.88
16544;BME280;8384;47.996;7.786;2023-03-03T03:03:40;98968.88;;;-1.83;98.48
16544;BME280;8384;47.996;7.786;2023-03-03T03:06:06;98979.63;;;-1.91;98.20
16544;BME280;8384;47.996;7.786;2023-03-03T03:08:31;98942.88;;;-2.05;98.19
16544;BME280;8384;47.996;7.786;2023-03-03T03:10:57;98947.22;;;-2.04;97.86
16544;BME280;8384;47.996;7.786;2023-03-03T03:13:23;98987.75;;;-1.76;97.92
16544;BME280;8384;47.996;7.786;2023-03-03T03:15:49;98991.97;;;-1.03;93.97
16544;BME280;8384;47.996;7.786;2023-03-03T03:18:14;98982.75;;;-1.01;91.79
16544;BME280;8384;47.996;7.786;2023-03-03T03:20:40;98988.13;;;-1.01;91.79
16544;BME280;8384;47.996;7.786;2023-03-03T03:23:06;98980.25;;;-1.49;92.34
16544;BME280;8384;47.996;7.786;2023-03-03T03:25:32;98996.78;;;-1.69;94.46
16544;BME280;8384;47.996;7.786;2023-03-03T03:27:57;98997.47;;;-2.15;96.09
16544;BME280;8384;47.996;7.786;2023-03-03T03:30:23;98990.44;;;-2.16;97.73
16544;BME280;8384;47.996;7.786;2023-03-03T03:32:48;98998.56;;;-2.49;98.33
16544;BME280;8384;47.996;7.786;2023-03-03T03:35:13;98985.84;;;-2.47;99.05
16544;BME280;8384;47.996;7.786;2023-03-03T03:37:39;99002.22;;;-2.42;99.83
16544;BME280;8384;47.996;7.786;2023-03-03T03:40:05;99008.88;;;-2.21;100.00
16544;BME280;8384;47.996;7.786;2023-03-03T03:42:31;99003.81;;;-2.07;99.29
16544;BME280;8384;47.996;7.786;2023-03-03T03:44:56;99001.75;;;-1.97;97.68
16544;BME280;8384;47.996;7.786;2023-03-03T03:47:21;98997.72;;;-1.93;97.23
16544;BME280;8384;47.996;7.786;2023-03-03T03:49:46;98975.69;;;-2.03;96.87
16544;BME280;8384;47.996;7.786;2023-03-03T03:52:12;98996.03;;;-1.94;96.50
16544;BME280;8384;47.996;7.786;2023-03-03T03:54:37;98783.75;;;-3.22;96.35
16544;BME280;8384;47.996;7.786;2023-03-03T03:57:02;98999.44;;;-2.00;96.50
16544;BME280;8384;47.996;7.786;2023-03-03T03:59:28;99000.06;;;-1.90;96.42
16544;BME280;8384;47.996;7.786;2023-03-03T04:01:53;99012.75;;;-1.84;96.60
16544;BME280;8384;47.996;7.786;2023-03-03T04:04:18;98999.81;;;-2.12;97.68
16544;BME280;8384;47.996;7.786;2023-03-03T04:06:43;98994.34;;;-2.27;98.72
16544;BME280;8384;47.996;7.786;2023-03-03T04:09:09;98992.25;;;-2.08;98.76
16544;BME280;8384;47.996;7.786;2023-03-03T04:11:35;98988.75;;;-1.45;95.52
16544;BME280;8384;47.996;7.786;2023-03-03T04:14:00;99005.22;;;-1.48;92.40
16544;BME280;8384;47.996;7.786;2023-03-03T04:16:25;99027.97;;;-1.76;94.60
16544;BME280;8384;47.996;7.786;2023-03-03T04:18:50;99023.50;;;-1.92;96.55
16544;BME280;8384;47.996;7.786;2023-03-03T04:21:16;99035.09;;;-2.00;97.29
16544;BME280;8384;47.996;7.786;2023-03-03T04:23:41;99031.28;;;-2.22;98.63
16544;BME280;8384;47.996;7.786;2023-03-03T04:26:07;99035.16;;;-2.16;99.96
16544;BME280;8384;47.996;7.786;2023-03-03T04:28:33;99038.97;;;-2.02;99.68
16544;BME280;8384;47.996;7.786;2023-03-03T04:30:58;99007.13;;;-2.62;99.67
16544;BME280;8384;47.996;7.786;2023-03-03T04:33:24;98998.28;;;-3.04;100.00
16544;BME280;8384;47.996;7.786;2023-03-03T04:35:49;99032.75;;;-2.84;100.00
16544;BME280;8384;47.996;7.786;2023-03-03T04:38:15;99020.19;;;-2.67;100.00
16544;BME280;8384;47.996;7.786;2023-03-03T04:40:40;99018.34;;;-2.66;100.00
16544;BME280;8384;47.996;7.786;2023-03-03T04:43:06;99020.66;;;-2.47;100.00
16544;BME280;8384;47.996;7.786;2023-03-03T04:45:32;99029.84;;;-2.41;100.00
16544;BME280;8384;47.996;7.786;2023-03-03T04:47:57;99007.72;;;-2.35;100.00
16544;BME280;8384;47.996;7.786;2023-03-03T04:50:23;99023.94;;;-2.20;100.00
16544;BME280;8384;47.996;7.786;2023-03-03T04:52:48;99028.91;;;-2.00;100.00
16544;BME280;8384;47.996;7.786;2023-03-03T04:55:13;99025.03;;;-1.98;100.00
16544;BME280;8384;47.996;7.786;2023-03-03T04:57:41;99014.78;;;-1.86;99.86
16544;BME280;8384;47.996;7.786;2023-03-03T05:00:06;99010.88;;;-1.75;100.00
16544;BME280;8384;47.996;7.786;2023-03-03T05:02:32;99012.38;;;-1.72;100.00
16544;BME280;8384;47.996;7.786;2023-03-03T05:04:57;99000.25;;;-2.00;100.00
16544;BME280;8384;47.996;7.786;2023-03-03T05:07:22;99043.13;;;-2.00;100.00
16544;BME280;8384;47.996;7.786;2023-03-03T05:09:48;99029.47;;;-2.30;100.00
16544;BME280;8384;47.996;7.786;2023-03-03T05:12:13;99042.06;;;-2.30;100.00
16544;BME280;8384;47.996;7.786;2023-03-03T05:14:39;99032.97;;;-2.21;100.00
16544;BME280;8384;47.996;7.786;2023-03-03T05:17:04;99034.16;;;-2.15;100.00
16544;BME280;8384;47.996;7.786;2023-03-03T05:19:30;99041.59;;;-1.94;100.00
16544;BME280;8384;47.996;7.786;2023-03-03T05:21:55;99014.69;;;-2.09;100.00
16544;BME280;8384;47.996;7.786;2023-03-03T05:24:21;99029.13;;;-2.18;100.00
16544;BME280;8384;47.996;7.786;2023-03-03T05:26:47;99032.75;;;-2.03;100.00
16544;BME280;8384;47.996;7.786;2023-03-03T05:29:13;99035.53;;;-1.88;100.00
16544;BME280;8384;47.996;7.786;2023-03-03T05:31:38;99013.13;;;-1.95;100.00
16544;BME280;8384;47.996;7.786;2023-03-03T05:34:04;98999.78;;;-2.03;100.00
16544;BME280;8384;47.996;7.786;2023-03-03T05:36:29;99018.75;;;-1.73;100.00
16544;BME280;8384;47.996;7.786;2023-03-03T05:38:54;99039.44;;;-1.59;100.00
16544;BME280;8384;47.996;7.786;2023-03-03T05:41:19;99024.69;;;-1.55;100.00
16544;BME280;8384;47.996;7.786;2023-03-03T05:43:45;99004.56;;;-1.51;100.00
16544;BME280;8384;47.996;7.786;2023-03-03T05:46:10;99006.72;;;-1.23;100.00
16544;BME280;8384;47.996;7.786;2023-03-03T05:48:35;99031.03;;;-1.01;100.00
16544;BME280;8384;47.996;7.786;2023-03-03T05:51:01;99046.66;;;-0.81;99.62
16544;BME280;8384;47.996;7.786;2023-03-03T05:53:26;99011.69;;;-0.73;98.75
16544;BME280;8384;47.996;7.786;2023-03-03T05:55:52;99029.88;;;-0.60;97.93
16544;BME280;8384;47.996;7.786;2023-03-03T05:58:17;99011.19;;;-0.53;98.52
16544;BME280;8384;47.996;7.786;2023-03-03T06:00:43;99052.78;;;-0.34;98.79
16544;BME280;8384;47.996;7.786;2023-03-03T06:03:08;99038.06;;;-0.23;98.00
16544;BME280;8384;47.996;7.786;2023-03-03T06:05:33;99049.25;;;-0.35;95.81
16544;BME280;8384;47.996;7.786;2023-03-03T06:07:58;99058.19;;;-0.19;93.37
16544;BME280;8384;47.996;7.786;2023-03-03T06:10:24;99073.16;;;-0.25;93.74
16544;BME280;8384;47.996;7.786;2023-03-03T06:12:49;99035.16;;;-0.67;94.75
16544;BME280;8384;47.996;7.786;2023-03-03T06:15:15;99059.47;;;-0.68;96.49
16544;BME280;8384;47.996;7.786;2023-03-03T06:17:40;99050.25;;;-0.89;97.81
16544;BME280;8384;47.996;7.786;2023-03-03T06:20:05;99034.09;;;-0.66;97.48
16544;BME280;8384;47.996;7.786;2023-03-03T06:22:31;99059.56;;;-0.23;96.86
16544;BME280;8384;47.996;7.786;2023-03-03T06:24:57;99060.13;;;-0.13;96.19
16544;BME280;8384;47.996;7.786;2023-03-03T06:27:22;99067.06;;;-0.19;95.54
16544;BME280;8384;47.996;7.786;2023-03-03T06:29:47;99082.28;;;0.04;93.19
16544;BME280;8384;47.996;7.786;2023-03-03T06:32:12;99052.06;;;-0.13;91.92
16544;BME280;8384;47.996;7.786;2023-03-03T06:34:38;99073.44;;;-0.35;93.68
16544;BME280;8384;47.996;7.786;2023-03-03T06:37:03;99066.75;;;-0.39;93.25
16544;BME280;8384;47.996;7.786;2023-03-03T06:39:29;99079.94;;;-0.29;93.64
16544;BME280;8384;47.996;7.786;2023-03-03T06:41:54;99055.84;;;-0.37;93.14
16544;BME280;8384;47.996;7.786;2023-03-03T06:44:19;99085.50;;;-0.16;92.11
16544;BME280;8384;47.996;7.786;2023-03-03T06:46:44;99064.81;;;-0.45;93.07
16544;BME280;8384;47.996;7.786;2023-03-03T06:49:10;99095.47;;;-0.39;94.17
16544;BME280;8384;47.996;7.786;2023-03-03T06:51:37;99106.41;;;-0.26;94.07
16544;BME280;8384;47.996;7.786;2023-03-03T06:54:18;99109.97;;;-0.25;94.19
16544;BME280;8384;47.996;7.786;2023-03-03T06:56:44;99098.16;;;-0.39;94.60
16544;BME280;8384;47.996;7.786;2023-03-03T06:59:14;99106.63;;;-0.27;95.09
16544;BME280;8384;47.996;7.786;2023-03-03T07:01:41;99108.22;;;-0.18;93.89
16544;BME280;8384;47.996;7.786;2023-03-03T07:04:29;99119.84;;;-0.41;95.68
16544;BME280;8384;47.996;7.786;2023-03-03T07:07:17;99120.41;;;-0.69;97.53
16544;BME280;8384;47.996;7.786;2023-03-03T07:09:46;99096.25;;;-1.00;98.38
16544;BME280;8384;47.996;7.786;2023-03-03T07:12:20;99124.19;;;-0.86;99.52
16544;BME280;8384;47.996;7.786;2023-03-03T07:14:51;99126.22;;;-0.65;100.00
16544;BME280;8384;47.996;7.786;2023-03-03T07:17:21;99122.34;;;-0.63;100.00
16544;BME280;8384;47.996;7.786;2023-03-03T07:19:48;99111.66;;;-0.48;100.00
16544;BME280;8384;47.996;7.786;2023-03-03T07:22:20;99127.66;;;-0.31;100.00
16544;BME280;8384;47.996;7.786;2023-03-03T07:24:51;99134.16;;;-0.10;99.92
16544;BME280;8384;47.996;7.786;2023-03-03T07:27:23;99114.72;;;-0.12;98.99
16544;BME280;8384;47.996;7.786;2023-03-03T07:29:51;99136.47;;;-0.22;97.92
16544;BME280;8384;47.996;7.786;2023-03-03T07:32:39;99138.16;;;-0.06;98.20
16544;BME280;8384;47.996;7.786;2023-03-03T07:37:44;99130.25;;;-0.23;98.47
16544;BME280;8384;47.996;7.786;2023-03-03T07:42:53;99131.59;;;-0.04;98.20
16544;BME280;8384;47.996;7.786;2023-03-03T07:45:31;99141.34;;;0.27;97.62
16544;BME280;8384;47.996;7.786;2023-03-03T07:48:24;99147.47;;;0.36;95.97
16544;BME280;8384;47.996;7.786;2023-03-03T07:50:51;99149.16;;;0.52;94.42
16544;BME280;8384;47.996;7.786;2023-03-03T07:55:47;99147.09;;;0.39;94.44
16544;BME280;8384;47.996;7.786;2023-03-03T07:58:19;99138.84;;;0.56;92.68
16544;BME280;8384;47.996;7.786;2023-03-03T08:01:22;99168.78;;;0.68;91.48
16544;BME280;8384;47.996;7.786;2023-03-03T08:03:49;99174.00;;;0.69;92.29
16544;BME280;8384;47.996;7.786;2023-03-03T08:11:48;99174.94;;;0.62;94.24
16544;BME280;8384;47.996;7.786;2023-03-03T08:14:20;99185.41;;;0.71;94.92
16544;BME280;8384;47.996;7.786;2023-03-03T08:16:46;99163.69;;;0.88;94.18
16544;BME280;8384;47.996;7.786;2023-03-03T08:19:12;99182.22;;;0.98;94.24
16544;BME280;8384;47.996;7.786;2023-03-03T08:21:41;99132.69;;;0.92;93.83
16544;BME280;8384;47.996;7.786;2023-03-03T08:24:06;99169.59;;;1.35;92.12
16544;BME280;8384;47.996;7.786;2023-03-03T08:26:31;99179.16;;;1.59;90.62
16544;BME280;8384;47.996;7.786;2023-03-03T08:28:57;99151.06;;;1.69;85.87
16544;BME280;8384;47.996;7.786;2023-03-03T08:31:22;99147.56;;;1.68;85.70
16544;BME280;8384;47.996;7.786;2023-03-03T08:33:47;99175.31;;;1.47;87.45
16544;BME280;8384;47.996;7.786;2023-03-03T08:36:13;99176.88;;;1.56;88.04
16544;BME280;8384;47.996;7.786;2023-03-03T08:38:39;99156.47;;;1.25;88.83
16544;BME280;8384;47.996;7.786;2023-03-03T08:41:05;99176.59;;;1.29;88.98
16544;BME280;8384;47.996;7.786;2023-03-03T08:43:30;99173.16;;;1.57;89.34
16544;BME280;8384;47.996;7.786;2023-03-03T08:45:58;99138.31;;;1.56;88.38
16544;BME280;8384;47.996;7.786;2023-03-03T08:48:25;99167.13;;;2.05;86.98
16544;BME280;8384;47.996;7.786;2023-03-03T08:50:50;99175.97;;;2.21;84.92
16544;BME280;8384;47.996;7.786;2023-03-03T08:53:17;99169.97;;;2.54;81.08
16544;BME280;8384;47.996;7.786;2023-03-03T08:55:42;99178.69;;;2.56;81.53
16544;BME280;8384;47.996;7.786;2023-03-03T08:58:07;99166.63;;;2.52;82.12
16544;BME280;8384;47.996;7.786;2023-03-03T09:00:33;99180.81;;;2.61;81.87
16544;BME280;8384;47.996;7.786;2023-03-03T09:02:59;99170.03;;;2.67;80.82
16544;BME280;8384;47.996;7.786;2023-03-03T09:05:25;99167.25;;;2.54;81.67
16544;BME280;8384;47.996;7.786;2023-03-03T09:07:52;99180.94;;;2.88;81.57
16544;BME280;8384;47.996;7.786;2023-03-03T09:10:22;99184.94;;;2.98;81.29
16544;BME280;8384;47.996;7.786;2023-03-03T09:12:52;99177.47;;;3.00;81.33
16544;BME280;8384;47.996;7.786;2023-03-03T09:15:25;99178.31;;;3.08;82.58
16544;BME280;8384;47.996;7.786;2023-03-03T09:17:51;99171.72;;;3.17;79.37
16544;BME280;8384;47.996;7.786;2023-03-03T09:20:21;99185.47;;;3.29;79.74
16544;BME280;8384;47.996;7.786;2023-03-03T09:22:47;99185.09;;;3.45;78.15
16544;BME280;8384;47.996;7.786;2023-03-03T09:27:52;99185.47;;;3.36;78.20
16544;BME280;8384;47.996;7.786;2023-03-03T09:32:50;99182.13;;;3.20;79.89
16544;BME280;8384;47.996;7.786;2023-03-03T09:35:36;99158.84;;;3.26;80.01
16544;BME280;8384;47.996;7.786;2023-03-03T09:38:18;99156.41;;;3.44;77.98
16544;BME280;8384;47.996;7.786;2023-03-03T09:52:02;99183.28;;;3.80;74.12
16544;BME280;8384;47.996;7.786;2023-03-03T09:54:49;99195.38;;;3.90;75.42
16544;BME280;8384;47.996;7.786;2023-03-03T10:00:35;99198.19;;;3.49;75.76
16544;BME280;8384;47.996;7.786;2023-03-03T10:06:10;99210.50;;;3.65;77.19
16544;BME280;8384;47.996;7.786;2023-03-03T10:14:21;99197.28;;;4.10;73.94
16544;BME280;8384;47.996;7.786;2023-03-03T10:16:59;99174.56;;;3.71;74.24
16544;BME280;8384;47.996;7.786;2023-03-03T10:19:35;99181.84;;;3.84;74.21
16544;BME280;8384;47.996;7.786;2023-03-03T10:22:16;99181.44;;;4.20;72.39
16544;BME280;8384;47.996;7.786;2023-03-03T10:24:56;99195.56;;;4.56;71.69
16544;BME280;8384;47.996;7.786;2023-03-03T10:30:10;99207.09;;;5.04;71.02
16544;BME280;8384;47.996;7.786;2023-03-03T10:38:35;99203.69;;;5.22;69.22
16544;BME280;8384;47.996;7.786;2023-03-03T10:44:00;99204.13;;;5.25;70.28
16544;BME280;8384;47.996;7.786;2023-03-03T10:55:07;99212.00;;;6.55;66.68
16544;BME280;8384;47.996;7.786;2023-03-03T11:00:26;99209.63;;;6.84;64.06
16544;BME280;8384;47.996;7.786;2023-03-03T11:05:57;99205.19;;;6.71;64.10
16544;BME280;8384;47.996;7.786;2023-03-03T11:08:47;99206.66;;;6.67;61.88
16544;BME280;8384;47.996;7.786;2023-03-03T11:11:20;99197.78;;;6.79;62.12
16544;BME280;8384;47.996;7.786;2023-03-03T11:13:59;99180.72;;;6.71;61.70
16544;BME280;8384;47.996;7.786;2023-03-03T11:16:36;99189.72;;;7.09;61.51
16544;BME280;8384;47.996;7.786;2023-03-03T11:19:20;99188.63;;;7.29;60.33
16544;BME280;8384;47.996;7.786;2023-03-03T11:22:01;99190.59;;;7.40;59.72
16544;BME280;8384;47.996;7.786;2023-03-03T11:24:46;99196.97;;;7.46;60.00
16544;BME280;8384;47.996;7.786;2023-03-03T11:30:17;99202.19;;;8.20;58.59
16544;BME280;8384;47.996;7.786;2023-03-03T11:33:06;99186.34;;;7.75;58.19
16544;BME280;8384;47.996;7.786;2023-03-03T11:35:46;99191.38;;;8.02;57.81
16544;BME280;8384;47.996;7.786;2023-03-03T11:40:58;99149.19;;;6.70;57.84
16544;BME280;8384;47.996;7.786;2023-03-03T11:43:40;99175.06;;;6.92;59.07
16544;BME280;8384;47.996;7.786;2023-03-03T11:46:14;99163.63;;;5.95;62.14
16544;BME280;8384;47.996;7.786;2023-03-03T11:48:57;99178.19;;;6.07;62.93
16544;BME280;8384;47.996;7.786;2023-03-03T11:57:19;99173.69;;;6.20;63.74
16544;BME280;8384;47.996;7.786;2023-03-03T12:05:32;99150.66;;;6.48;62.66
16544;BME280;8384;47.996;7.786;2023-03-03T12:10:45;99147.97;;;6.48;61.88
16544;BME280;8384;47.996;7.786;2023-03-03T12:13:29;99164.84;;;6.50;63.16
16544;BME280;8384;47.996;7.786;2023-03-03T12:18:52;99163.84;;;6.88;61.68
16544;BME280;8384;47.996;7.786;2023-03-03T12:27:16;99146.47;;;6.70;62.85
16544;BME280;8384;47.996;7.786;2023-03-03T12:30:00;99130.84;;;6.47;63.49
16544;BME280;8384;47.996;7.786;2023-03-03T12:38:46;99149.78;;;6.72;61.61
16544;BME280;8384;47.996;7.786;2023-03-03T12:41:20;99143.59;;;6.65;61.63
16544;BME280;8384;47.996;7.786;2023-03-03T12:49:08;99113.22;;;7.05;59.57
16544;BME280;8384;47.996;7.786;2023-03-03T12:56:53;99108.94;;;6.98;59.11
16544;BME280;8384;47.996;7.786;2023-03-03T13:02:30;99131.75;;;7.58;58.55
16544;BME280;8384;47.996;7.786;2023-03-03T13:07:46;99106.47;;;7.69;57.39
16544;BME280;8384;47.996;7.786;2023-03-03T13:10:29;99128.31;;;8.29;56.05
16544;BME280;8384;47.996;7.786;2023-03-03T13:15:44;99124.63;;;8.70;54.95
16544;BME280;8384;47.996;7.786;2023-03-03T13:18:43;99130.03;;;7.75;57.08
16544;BME280;8384;47.996;7.786;2023-03-03T13:21:26;99136.25;;;8.18;57.55
16544;BME280;8384;47.996;7.786;2023-03-03T13:24:22;99135.63;;;7.80;58.02
16544;BME280;8384;47.996;7.786;2023-03-03T13:26:58;99141.44;;;8.08;57.79
16544;BME280;8384;47.996;7.786;2023-03-03T13:29:34;99125.22;;;8.25;57.26
16544;BME280;8384;47.996;7.786;2023-03-03T13:32:07;99129.66;;;7.84;59.21
16544;BME280;8384;47.996;7.786;2023-03-03T13:34:50;99127.78;;;7.72;58.71
16544;BME280;8384;47.996;7.786;2023-03-03T13:37:41;99127.63;;;7.25;61.55
16544;BME280;8384;47.996;7.786;2023-03-03T13:40:23;99126.59;;;7.07;61.26
16544;BME280;8384;47.996;7.786;2023-03-03T13:48:54;99126.34;;;7.81;60.06
16544;BME280;8384;47.996;7.786;2023-03-03T13:51:50;99094.53;;;7.70;58.89
16544;BME280;8384;47.996;7.786;2023-03-03T13:57:10;99114.47;;;8.30;57.63
16544;BME280;8384;47.996;7.786;2023-03-03T13:59:51;99121.44;;;8.26;57.52
16544;BME280;8384;47.996;7.786;2023-03-03T14:07:56;99111.75;;;8.30;57.55
16544;BME280;8384;47.996;7.786;2023-03-03T14:13:04;99097.97;;;8.73;56.54
16544;BME280;8384;47.996;7.786;2023-03-03T14:15:33;99091.09;;;8.70;56.75
16544;BME280;8384;47.996;7.786;2023-03-03T14:20:58;99099.75;;;7.84;58.37
16544;BME280;8384;47.996;7.786;2023-03-03T14:26:23;99077.16;;;7.95;58.80
16544;BME280;8384;47.996;7.786;2023-03-03T14:28:49;99096.22;;;8.19;57.92
16544;BME280;8384;47.996;7.786;2023-03-03T14:31:28;99097.75;;;7.91;59.57
16544;BME280;8384;47.996;7.786;2023-03-03T14:34:39;99089.91;;;7.83;59.42
16544;BME280;8384;47.996;7.786;2023-03-03T14:37:26;99097.97;;;7.77;59.36
16544;BME280;8384;47.996;7.786;2023-03-03T14:40:20;99099.66;;;7.90;59.09
16544;BME280;8384;47.996;7.786;2023-03-03T14:47:45;99097.28;;;8.06;58.98
16544;BME280;8384;47.996;7.786;2023-03-03T14:50:33;99093.84;;;8.22;58.09
16544;BME280;8384;47.996;7.786;2023-03-03T14:53:10;99093.28;;;8.32;56.85
16544;BME280;8384;47.996;7.786;2023-03-03T14:55:39;99097.03;;;8.67;56.03
16544;BME280;8384;47.996;7.786;2023-03-03T14:58:39;99089.22;;;8.59;55.36
16544;BME280;8384;47.996;7.786;2023-03-03T15:04:03;99080.81;;;8.48;56.87
16544;BME280;8384;47.996;7.786;2023-03-03T15:06:33;99087.28;;;8.83;55.11
16544;BME280;8384;47.996;7.786;2023-03-03T15:12:21;99081.06;;;8.99;54.38
16544;BME280;8384;47.996;7.786;2023-03-03T15:14:49;99079.13;;;9.12;53.63
16544;BME280;8384;47.996;7.786;2023-03-03T15:17:27;99087.69;;;9.04;53.33
16544;BME280;8384;47.996;7.786;2023-03-03T15:22:50;99084.56;;;8.83;53.58
16544;BME280;8384;47.996;7.786;2023-03-03T15:25:35;99081.41;;;8.38;55.00
16544;BME280;8384;47.996;7.786;2023-03-03T15:31:05;99071.22;;;8.46;54.52
16544;BME280;8384;47.996;7.786;2023-03-03T15:33:47;99076.44;;;8.23;56.07
16544;BME280;8384;47.996;7.786;2023-03-03T15:36:38;99078.25;;;8.82;54.15
16544;BME280;8384;47.996;7.786;2023-03-03T15:39:18;99074.88;;;8.39;54.61
16544;BME280;8384;47.996;7.786;2023-03-03T15:42:02;99079.16;;;8.11;55.81
16544;BME280;8384;47.996;7.786;2023-03-03T15:50:42;99080.19;;;7.63;58.06
16544;BME280;8384;47.996;7.786;2023-03-03T16:01:32;99087.66;;;7.25;58.59
16544;BME280;8384;47.996;7.786;2023-03-03T16:04:08;99077.38;;;7.27;59.63
16544;BME280;8384;47.996;7.786;2023-03-03T16:12:33;99088.56;;;7.19;59.37
16544;BME280;8384;47.996;7.786;2023-03-03T16:18:23;99088.75;;;7.36;58.99
16544;BME280;8384;47.996;7.786;2023-03-03T16:23:47;99096.28;;;7.53;59.46
16544;BME280;8384;47.996;7.786;2023-03-03T16:26:42;99085.38;;;7.53;58.63
16544;BME280;8384;47.996;7.786;2023-03-03T16:31:53;99103.44;;;7.47;60.21
16544;BME280;8384;47.996;7.786;2023-03-03T16:34:29;99083.84;;;7.57;58.35
16544;BME280;8384;47.996;7.786;2023-03-03T16:37:41;99071.88;;;7.46;59.04
16544;BME280;8384;47.996;7.786;2023-03-03T16:40:12;99112.94;;;7.56;60.63
16544;BME280;8384;47.996;7.786;2023-03-03T16:42:39;99116.03;;;7.72;58.75
16544;BME280;8384;47.996;7.786;2023-03-03T16:45:23;99119.03;;;7.82;58.31
16544;BME280;8384;47.996;7.786;2023-03-03T16:48:01;99121.50;;;7.84;59.10